Time;durP1;ratioP1;P1;durP2;ratioP2;P2;SDS_P1;SDS_P2;PMS_P1;PMS_P2;Temp;Humidity;BMP_temperature;BMP_pressure;BME280_temperature;BME280_humidity;BME280_pressure;Samples;Min_cycle;Max_cycle;Signal;HPM_P1;HPM_P2
2023/12/25 00:02:22;;;;;;;4.75;1.80;;;;;;;;;;4996453;28;20466;-68
2023/12/25 00:04:48;;;;;;;2.03;1.60;;;;;;;;;;4995971;28;20417;-68
2023/12/25 00:07:14;;;;;;;2.60;1.83;;;;;;;;;;4997219;28;20427;-69
2023/12/25 00:09:40;;;;;;;2.72;1.80;;;;;;;;;;4997202;28;20389;-68
2023/12/25 00:12:06;;;;;;;2.58;1.83;;;;;;;;;;5014406;28;20472;-69
2023/12/25 00:14:32;;;;;;;2.53;1.90;;;;;;;;;;5014105;28;20381;-69
2023/12/25 00:16:58;;;;;;;3.72;1.88;;;;;;;;;;5014072;28;20385;-68
2023/12/25 00:19:24;;;;;;;2.20;1.55;;;;;;;;;;5014092;28;20481;-70
2023/12/25 00:21:50;;;;;;;3.33;2.00;;;;;;;;;;5013993;28;20400;-69
2023/12/25 00:24:16;;;;;;;2.75;1.85;;;;;;;;;;4995983;28;20872;-69
2023/12/25 00:26:42;;;;;;;4.38;2.00;;;;;;;;;;4995913;28;20412;-69
2023/12/25 00:29:09;;;;;;;4.60;1.98;;;;;;;;;;5013789;28;20740;-69
2023/12/25 00:31:35;;;;;;;3.20;2.00;;;;;;;;;;5013333;28;20808;-69
2023/12/25 00:34:01;;;;;;;3.95;1.95;;;;;;;;;;5013638;28;20391;-69
2023/12/25 00:36:26;;;;;;;2.35;1.77;;;;;;;;;;5013197;28;20941;-68
2023/12/25 00:38:52;;;;;;;2.67;1.90;;;;;;;;;;5013149;28;20401;-69
2023/12/25 00:41:19;;;;;;;3.45;2.25;;;;;;;;;;4995238;28;20417;-70
2023/12/25 00:43:45;;;;;;;3.30;2.08;;;;;;;;;;5013070;28;20380;-68
2023/12/25 00:46:11;;;;;;;5.95;2.38;;;;;;;;;;5013204;28;20860;-69
2023/12/25 00:48:37;;;;;;;3.47;2.05;;;;;;;;;;4995201;28;20388;-69
2023/12/25 00:51:03;;;;;;;4.13;2.00;;;;;;;;;;4995133;28;21254;-70
2023/12/25 00:53:29;;;;;;;2.90;2.10;;;;;;;;;;5012772;28;20891;-69
2023/12/25 00:55:55;;;;;;;3.47;2.40;;;;;;;;;;4995002;28;20460;-70
2023/12/25 00:58:21;;;;;;;4.07;2.40;;;;;;;;;;5012680;28;20795;-68
2023/12/25 01:00:47;;;;;;;5.47;2.20;;;;;;;;;;5012569;28;20761;-69
2023/12/25 01:03:13;;;;;;;2.35;2.10;;;;;;;;;;4995154;28;20752;-70
2023/12/25 01:05:39;;;;;;;3.30;2.00;;;;;;;;;;5012815;28;20435;-69
2023/12/25 01:08:05;;;;;;;3.75;1.80;;;;;;;;;;5012634;28;20388;-69
2023/12/25 01:10:31;;;;;;;3.40;2.20;;;;;;;;;;5012898;28;20460;-70
2023/12/25 01:12:57;;;;;;;2.50;1.80;;;;;;;;;;4994715;28;20497;-70
2023/12/25 01:15:23;;;;;;;3.15;2.08;;;;;;;;;;5011662;28;20393;-69
2023/12/25 01:17:49;;;;;;;3.13;1.77;;;;;;;;;;5012740;28;20420;-69
2023/12/25 01:20:15;;;;;;;4.68;1.92;;;;;;;;;;5012367;28;20385;-70
2023/12/25 01:22:41;;;;;;;2.78;1.90;;;;;;;;;;5012265;28;20437;-70
2023/12/25 01:25:07;;;;;;;2.83;1.80;;;;;;;;;;4994770;28;20827;-69
2023/12/25 01:27:33;;;;;;;2.97;1.80;;;;;;;;;;5012516;28;20542;-69
2023/12/25 01:29:59;;;;;;;3.15;1.80;;;;;;;;;;4994727;28;20465;-69
2023/12/25 01:32:25;;;;;;;4.75;1.70;;;;;;;;;;5012610;28;20485;-69
2023/12/25 01:34:51;;;;;;;2.97;1.60;;;;;;;;;;5012722;28;20391;-69
2023/12/25 01:37:17;;;;;;;2.17;1.60;;;;;;;;;;5012447;28;20412;-70
2023/12/25 01:39:43;;;;;;;3.00;1.65;;;;;;;;;;5012439;28;20747;-69
2023/12/25 01:42:09;;;;;;;1.75;1.65;;;;;;;;;;4994565;28;20400;-70
2023/12/25 01:44:35;;;;;;;1.60;1.50;;;;;;;;;;5012312;28;20874;-70
2023/12/25 01:47:01;;;;;;;1.83;1.50;;;;;;;;;;4994660;28;20412;-70
2023/12/25 01:49:27;;;;;;;3.08;1.67;;;;;;;;;;5012411;28;20503;-70
2023/12/25 01:51:53;;;;;;;2.72;1.80;;;;;;;;;;5011796;28;20392;-69
2023/12/25 01:54:19;;;;;;;2.70;1.70;;;;;;;;;;4994155;28;20800;-70
2023/12/25 01:56:45;;;;;;;4.90;1.83;;;;;;;;;;5012037;28;20397;-69
2023/12/25 01:59:11;;;;;;;2.85;1.95;;;;;;;;;;4994067;28;20444;-69
2023/12/25 02:01:37;;;;;;;2.28;1.90;;;;;;;;;;5011961;28;20420;-70
2023/12/25 02:04:03;;;;;;;3.55;2.10;;;;;;;;;;5011498;28;20365;-67
2023/12/25 02:06:29;;;;;;;2.25;1.90;;;;;;;;;;5012147;28;20377;-67
2023/12/25 02:08:55;;;;;;;3.67;2.05;;;;;;;;;;4994098;28;20471;-69
2023/12/25 02:11:21;;;;;;;4.50;2.20;;;;;;;;;;5011485;28;20898;-69
2023/12/25 02:13:47;;;;;;;3.33;2.10;;;;;;;;;;4994010;28;20696;-69
2023/12/25 02:16:13;;;;;;;2.97;2.00;;;;;;;;;;5011530;28;20393;-69
2023/12/25 02:18:39;;;;;;;4.15;2.05;;;;;;;;;;5011586;28;20468;-66
2023/12/25 02:21:06;;;;;;;3.35;2.03;;;;;;;;;;4993793;28;20421;-70
2023/12/25 02:23:32;;;;;;;3.10;2.20;;;;;;;;;;4994069;28;20389;-69
2023/12/25 02:25:59;;;;;;;2.92;2.03;;;;;;;;;;5012164;28;20772;-72
2023/12/25 02:28:26;;;;;;;2.95;1.92;;;;;;;;;;5015002;28;20434;-69
2023/12/25 02:30:52;;;;;;;3.40;1.90;;;;;;;;;;5015625;28;20395;-69
2023/12/25 02:33:18;;;;;;;2.33;1.67;;;;;;;;;;5015400;28;20384;-71
2023/12/25 02:35:44;;;;;;;2.63;1.83;;;;;;;;;;5015623;28;20381;-70
2023/12/25 02:38:10;;;;;;;1.90;1.70;;;;;;;;;;4997829;28;20501;-68
2023/12/25 02:40:39;;;;;;;2.03;1.70;;;;;;;;;;5015663;28;20381;-69
2023/12/25 02:43:05;;;;;;;3.43;1.70;;;;;;;;;;4997523;28;20404;-69
2023/12/25 02:45:31;;;;;;;2.60;1.70;;;;;;;;;;5015507;28;20493;-69
2023/12/25 02:47:57;;;;;;;2.08;1.60;;;;;;;;;;5015244;28;20384;-69
2023/12/25 02:50:23;;;;;;;2.77;2.00;;;;;;;;;;5015101;28;20534;-69
2023/12/25 02:52:48;;;;;;;2.15;1.75;;;;;;;;;;5014976;28;20483;-69
2023/12/25 02:55:14;;;;;;;2.10;1.90;;;;;;;;;;5015654;28;20389;-71
2023/12/25 02:57:40;;;;;;;2.40;2.10;;;;;;;;;;5015091;28;20887;-70
2023/12/25 03:00:07;;;;;;;2.20;1.92;;;;;;;;;;5014916;28;20443;-70
2023/12/25 03:02:33;;;;;;;2.00;1.80;;;;;;;;;;5015267;28;20574;-70
2023/12/25 03:04:58;;;;;;;3.53;1.90;;;;;;;;;;4997405;28;20463;-70
2023/12/25 03:07:24;;;;;;;3.03;2.00;;;;;;;;;;5014593;28;20458;-69
2023/12/25 03:09:50;;;;;;;2.30;2.13;;;;;;;;;;5014583;28;20381;-72
2023/12/25 03:12:16;;;;;;;2.47;2.00;;;;;;;;;;4996793;28;20404;-70
2023/12/25 03:14:42;;;;;;;1.98;1.77;;;;;;;;;;5014846;28;20447;-70
2023/12/25 03:17:08;;;;;;;3.35;2.00;;;;;;;;;;5014536;28;20432;-69
2023/12/25 03:19:34;;;;;;;3.30;1.85;;;;;;;;;;5014424;28;20393;-70
2023/12/25 03:22:00;;;;;;;2.30;1.70;;;;;;;;;;5014343;28;20816;-69
2023/12/25 03:24:26;;;;;;;1.63;1.52;;;;;;;;;;4996912;28;20862;-67
2023/12/25 03:26:52;;;;;;;3.50;1.60;;;;;;;;;;5014745;28;20385;-70
2023/12/25 03:29:18;;;;;;;1.80;1.70;;;;;;;;;;5014397;28;20465;-70
2023/12/25 03:31:44;;;;;;;1.60;1.50;;;;;;;;;;5014464;28;20428;-70
2023/12/25 03:34:15;;;;;;;2.10;1.50;;;;;;;;;;4996745;28;20383;-70
2023/12/25 03:36:41;;;;;;;1.45;1.20;;;;;;;;;;4996714;28;20400;-69
2023/12/25 03:39:07;;;;;;;2.20;1.60;;;;;;;;;;5013504;28;20388;-69
2023/12/25 03:41:33;;;;;;;1.88;1.40;;;;;;;;;;4996503;28;20497;-70
2023/12/25 03:43:59;;;;;;;1.98;1.40;;;;;;;;;;5014189;28;20416;-70
2023/12/25 03:46:25;;;;;;;1.60;1.35;;;;;;;;;;5014108;28;20392;-69
2023/12/25 03:48:51;;;;;;;1.20;1.10;;;;;;;;;;5013981;28;20416;-70
2023/12/25 03:51:16;;;;;;;2.17;1.25;;;;;;;;;;5013893;28;20400;-68
2023/12/25 03:53:42;;;;;;;1.30;1.20;;;;;;;;;;5013906;28;20407;-69
2023/12/25 03:56:08;;;;;;;1.30;1.20;;;;;;;;;;5014365;28;20460;-69
2023/12/25 03:58:35;;;;;;;1.30;1.15;;;;;;;;;;5013912;28;20870;-71
2023/12/25 04:01:01;;;;;;;1.58;1.20;;;;;;;;;;4996174;28;20393;-69
2023/12/25 04:03:27;;;;;;;1.50;1.40;;;;;;;;;;5014232;28;20827;-69
2023/12/25 04:05:53;;;;;;;1.85;1.40;;;;;;;;;;5013783;28;20496;-69
2023/12/25 04:08:19;;;;;;;1.58;1.27;;;;;;;;;;4996176;28;20416;-69
2023/12/25 04:10:45;;;;;;;1.50;1.30;;;;;;;;;;5013483;28;20840;-70
2023/12/25 04:13:11;;;;;;;3.28;1.30;;;;;;;;;;5013892;28;20435;-69
2023/12/25 04:15:37;;;;;;;2.20;1.30;;;;;;;;;;5013509;28;20388;-69
2023/12/25 04:18:03;;;;;;;1.38;1.27;;;;;;;;;;5014020;28;20495;-68
2023/12/25 04:20:29;;;;;;;1.38;1.27;;;;;;;;;;4996055;28;20439;-70
2023/12/25 04:22:55;;;;;;;2.03;1.47;;;;;;;;;;5013694;28;20418;-69
2023/12/25 04:25:21;;;;;;;1.33;1.23;;;;;;;;;;4996298;28;20389;-69
2023/12/25 04:27:47;;;;;;;1.73;1.48;;;;;;;;;;4995704;28;20412;-69
2023/12/25 04:30:13;;;;;;;2.67;1.35;;;;;;;;;;4996241;28;20940;-69
2023/12/25 04:32:39;;;;;;;1.50;1.40;;;;;;;;;;5013464;28;20471;-70
2023/12/25 04:35:05;;;;;;;2.70;1.50;;;;;;;;;;5014082;28;20429;-69
2023/12/25 04:37:31;;;;;;;1.75;1.40;;;;;;;;;;5013850;28;20388;-69
2023/12/25 04:39:57;;;;;;;2.55;1.30;;;;;;;;;;4995887;28;20397;-69
2023/12/25 04:42:23;;;;;;;1.73;1.45;;;;;;;;;;4996000;28;20932;-70
2023/12/25 04:44:49;;;;;;;2.00;1.50;;;;;;;;;;4996106;28;20385;-71
2023/12/25 04:47:15;;;;;;;1.52;1.42;;;;;;;;;;5013341;28;20389;-70
2023/12/25 04:49:41;;;;;;;1.65;1.50;;;;;;;;;;5013621;28;20389;-70
2023/12/25 04:52:07;;;;;;;1.50;1.40;;;;;;;;;;5010484;23;20854;-68
2023/12/25 04:54:33;;;;;;;1.98;1.38;;;;;;;;;;5014164;28;20958;-68
2023/12/25 04:56:59;;;;;;;1.73;1.63;;;;;;;;;;4995960;28;20413;-69
2023/12/25 04:59:25;;;;;;;2.07;1.70;;;;;;;;;;5013340;28;20871;-69
2023/12/25 05:01:53;;;;;;;2.72;1.52;;;;;;;;;;5013763;28;20871;-68
2023/12/25 05:04:19;;;;;;;1.58;1.48;;;;;;;;;;5013348;28;20376;-68
2023/12/25 05:06:45;;;;;;;1.80;1.50;;;;;;;;;;4995663;28;20491;-69
2023/12/25 05:09:11;;;;;;;1.77;1.40;;;;;;;;;;4995608;28;20416;-68
2023/12/25 05:11:37;;;;;;;1.40;1.30;;;;;;;;;;4995592;28;20385;-68
2023/12/25 05:14:03;;;;;;;1.50;1.40;;;;;;;;;;4995496;28;20751;-69
2023/12/25 05:16:29;;;;;;;1.85;1.23;;;;;;;;;;4995461;28;20388;-68
2023/12/25 05:18:55;;;;;;;1.30;1.20;;;;;;;;;;5013081;28;20389;-68
2023/12/25 05:21:21;;;;;;;1.42;1.00;;;;;;;;;;5012786;28;20471;-68
2023/12/25 05:23:47;;;;;;;1.50;1.00;;;;;;;;;;5013223;28;20432;-68
2023/12/25 05:26:13;;;;;;;1.20;1.10;;;;;;;;;;4995572;28;20389;-68
2023/12/25 05:28:39;;;;;;;0.95;0.95;;;;;;;;;;5013510;28;20451;-68
2023/12/25 05:31:05;;;;;;;1.40;0.90;;;;;;;;;;5012825;28;20732;-68
2023/12/25 05:33:31;;;;;;;1.10;0.90;;;;;;;;;;4995178;28;20416;-69
2023/12/25 05:35:57;;;;;;;1.53;0.70;;;;;;;;;;4995145;28;20381;-68
2023/12/25 05:38:23;;;;;;;1.10;0.80;;;;;;;;;;4995213;28;20397;-68
2023/12/25 05:40:49;;;;;;;0.90;0.90;;;;;;;;;;5012802;28;20372;-68
2023/12/25 05:43:15;;;;;;;0.70;0.70;;;;;;;;;;4995167;28;20412;-68
2023/12/25 05:45:41;;;;;;;1.10;0.77;;;;;;;;;;5012716;28;20384;-68
2023/12/25 05:48:08;;;;;;;0.70;0.63;;;;;;;;;;5012842;28;20377;-68
2023/12/25 05:50:34;;;;;;;1.17;0.80;;;;;;;;;;5012729;28;20387;-67
2023/12/25 05:53:00;;;;;;;0.80;0.80;;;;;;;;;;5019070;28;20397;-68
2023/12/25 05:55:26;;;;;;;0.70;0.70;;;;;;;;;;5017393;28;20425;-68
2023/12/25 05:57:52;;;;;;;0.68;0.68;;;;;;;;;;4999086;28;20381;-68
2023/12/25 06:00:18;;;;;;;1.98;0.90;;;;;;;;;;5017361;28;20444;-68
2023/12/25 06:02:44;;;;;;;0.80;0.80;;;;;;;;;;5014018;28;20411;-68
2023/12/25 06:05:10;;;;;;;1.13;1.02;;;;;;;;;;5012284;28;20381;-68
2023/12/25 06:07:36;;;;;;;0.80;0.80;;;;;;;;;;5013105;28;20392;-68
2023/12/25 06:10:03;;;;;;;1.15;0.80;;;;;;;;;;5012746;28;20751;-68
2023/12/25 06:12:29;;;;;;;0.70;0.70;;;;;;;;;;5012364;28;20384;-69
2023/12/25 06:14:55;;;;;;;0.70;0.70;;;;;;;;;;4994915;28;20487;-68
2023/12/25 06:17:21;;;;;;;1.07;0.73;;;;;;;;;;4994828;28;20461;-68
2023/12/25 06:19:47;;;;;;;0.90;0.80;;;;;;;;;;4995012;28;20901;-68
2023/12/25 06:22:13;;;;;;;1.50;0.80;;;;;;;;;;5012784;28;20437;-68
2023/12/25 06:24:39;;;;;;;1.03;0.97;;;;;;;;;;5012616;28;20950;-68
2023/12/25 06:27:05;;;;;;;0.80;0.80;;;;;;;;;;5012844;28;20854;-68
2023/12/25 06:29:31;;;;;;;1.60;0.70;;;;;;;;;;5012333;28;20814;-68
2023/12/25 06:31:57;;;;;;;0.80;0.80;;;;;;;;;;5012269;28;20454;-68
2023/12/25 06:34:23;;;;;;;1.10;0.90;;;;;;;;;;5012182;28;20399;-68
2023/12/25 06:36:49;;;;;;;1.00;0.90;;;;;;;;;;5012378;28;20417;-67
2023/12/25 06:39:15;;;;;;;2.00;0.90;;;;;;;;;;4994828;28;20468;-68
2023/12/25 06:41:40;;;;;;;0.70;0.70;;;;;;;;;;5011984;28;20447;-68
2023/12/25 06:44:07;;;;;;;0.90;0.90;;;;;;;;;;5012742;28;20416;-68
2023/12/25 06:46:32;;;;;;;1.17;1.00;;;;;;;;;;5012372;28;20926;-68
2023/12/25 06:48:59;;;;;;;1.02;0.90;;;;;;;;;;4996462;28;20419;-69
2023/12/25 06:51:26;;;;;;;1.58;0.93;;;;;;;;;;5001198;28;20863;-69
2023/12/25 06:53:52;;;;;;;1.25;1.00;;;;;;;;;;5002269;28;20381;-67
2023/12/25 06:56:18;;;;;;;1.20;1.10;;;;;;;;;;5016521;28;20506;-68
2023/12/25 06:58:44;;;;;;;1.30;0.90;;;;;;;;;;5017771;28;20493;-69
2023/12/25 07:01:09;;;;;;;1.33;0.80;;;;;;;;;;5018156;28;20416;-69
2023/12/25 07:03:35;;;;;;;1.47;0.97;;;;;;;;;;5015863;28;20385;-71
2023/12/25 07:06:01;;;;;;;1.30;0.82;;;;;;;;;;5015091;28;20381;-69
2023/12/25 07:08:27;;;;;;;1.20;0.93;;;;;;;;;;5015746;28;20388;-68
2023/12/25 07:10:54;;;;;;;1.10;1.00;;;;;;;;;;5016042;28;20384;-69
2023/12/25 07:13:20;;;;;;;2.13;0.90;;;;;;;;;;4998122;28;20386;-68
2023/12/25 07:15:46;;;;;;;0.90;0.90;;;;;;;;;;5018643;28;20388;-69
2023/12/25 07:18:12;;;;;;;2.15;1.00;;;;;;;;;;5019704;28;20392;-69
2023/12/25 07:20:38;;;;;;;0.85;0.80;;;;;;;;;;5016920;28;20476;-68
2023/12/25 07:23:04;;;;;;;1.00;0.90;;;;;;;;;;4998167;28;20455;-68
2023/12/25 07:25:30;;;;;;;1.10;0.90;;;;;;;;;;5016213;28;20373;-68
2023/12/25 07:27:56;;;;;;;1.30;1.10;;;;;;;;;;5016510;28;20409;-68
2023/12/25 07:30:22;;;;;;;1.10;1.00;;;;;;;;;;5015966;28;20438;-68
2023/12/25 07:32:48;;;;;;;2.03;1.00;;;;;;;;;;4997774;28;20891;-68
2023/12/25 07:35:14;;;;;;;1.08;0.98;;;;;;;;;;4997807;28;20392;-68
2023/12/25 07:37:40;;;;;;;0.90;0.88;;;;;;;;;;5015499;28;20397;-69
2023/12/25 07:40:06;;;;;;;1.15;1.05;;;;;;;;;;4997598;28;20403;-68
2023/12/25 07:42:32;;;;;;;1.30;1.10;;;;;;;;;;5015361;28;20559;-68
2023/12/25 07:44:58;;;;;;;0.98;0.98;;;;;;;;;;4997911;28;20393;-68
2023/12/25 07:47:24;;;;;;;1.08;0.98;;;;;;;;;;5031463;28;20383;-68
2023/12/25 07:49:50;;;;;;;0.90;0.90;;;;;;;;;;5027362;28;20409;-68
2023/12/25 07:52:16;;;;;;;1.13;0.90;;;;;;;;;;5020862;28;20878;-68
2023/12/25 07:54:42;;;;;;;1.07;1.00;;;;;;;;;;5018216;28;20384;-68
2023/12/25 07:57:08;;;;;;;1.23;1.00;;;;;;;;;;4998672;28;20397;-69
2023/12/25 07:59:34;;;;;;;1.30;1.00;;;;;;;;;;4998962;28;20412;-68
2023/12/25 08:02:00;;;;;;;1.30;1.00;;;;;;;;;;5016377;28;20405;-68
2023/12/25 08:04:26;;;;;;;1.40;0.95;;;;;;;;;;5016073;28;20883;-68
2023/12/25 08:06:52;;;;;;;1.45;1.30;;;;;;;;;;5015744;28;20385;-69
2023/12/25 08:09:18;;;;;;;1.03;1.00;;;;;;;;;;4997982;28;20464;-66
2023/12/25 08:11:44;;;;;;;1.05;0.90;;;;;;;;;;5015915;28;20716;-68
2023/12/25 08:14:10;;;;;;;1.30;1.20;;;;;;;;;;4997170;28;20373;-68
2023/12/25 08:16:36;;;;;;;1.97;1.60;;;;;;;;;;5015054;28;20392;-68
2023/12/25 08:19:02;;;;;;;1.77;1.23;;;;;;;;;;5014920;28;20468;-69
2023/12/25 08:21:28;;;;;;;1.95;1.63;;;;;;;;;;5014543;28;20770;-68
2023/12/25 08:23:54;;;;;;;2.30;2.07;;;;;;;;;;4997278;28;20880;-68
2023/12/25 08:26:20;;;;;;;3.92;2.90;;;;;;;;;;5015130;28;20942;-68
2023/12/25 08:28:47;;;;;;;2.15;1.85;;;;;;;;;;5015688;28;20855;-68
2023/12/25 08:31:13;;;;;;;2.47;2.15;;;;;;;;;;5015515;28;20384;-67
2023/12/25 08:33:39;;;;;;;2.03;1.83;;;;;;;;;;5016492;28;20467;-68
2023/12/25 08:36:05;;;;;;;2.10;1.90;;;;;;;;;;5016040;28;20385;-69
2023/12/25 08:38:31;;;;;;;1.40;1.30;;;;;;;;;;4997722;28;20428;-69
2023/12/25 08:40:57;;;;;;;1.80;1.50;;;;;;;;;;4997298;28;20386;-69
2023/12/25 08:43:23;;;;;;;2.10;1.90;;;;;;;;;;5014580;28;20405;-69
2023/12/25 08:45:49;;;;;;;1.98;1.50;;;;;;;;;;5014726;28;20368;-68
2023/12/25 08:48:15;;;;;;;1.77;1.33;;;;;;;;;;4996918;28;20451;-68
2023/12/25 08:50:41;;;;;;;3.53;2.30;;;;;;;;;;5014175;28;20403;-68
2023/12/25 08:53:08;;;;;;;1.80;1.70;;;;;;;;;;5013848;28;20395;-68
2023/12/25 08:55:34;;;;;;;2.75;2.55;;;;;;;;;;4996933;28;20962;-69
2023/12/25 08:57:59;;;;;;;2.97;2.67;;;;;;;;;;5014385;28;20417;-68
2023/12/25 09:00:25;;;;;;;2.42;2.22;;;;;;;;;;5014575;28;20385;-69
2023/12/25 09:02:51;;;;;;;2.53;2.33;;;;;;;;;;5013670;28;20411;-69
2023/12/25 09:05:18;;;;;;;2.00;1.90;;;;;;;;;;5013943;28;20384;-69
2023/12/25 09:07:44;;;;;;;2.00;1.40;;;;;;;;;;4996931;28;20381;-70
2023/12/25 09:10:10;;;;;;;1.73;1.63;;;;;;;;;;5015909;28;20381;-69
2023/12/25 09:12:36;;;;;;;2.30;1.20;;;;;;;;;;5014926;28;20443;-69
2023/12/25 09:15:04;;;;;;;3.30;2.25;;;;;;;;;;5015698;28;20396;-69
2023/12/25 09:17:30;;;;;;;1.95;1.70;;;;;;;;;;5015608;28;20756;-69
2023/12/25 09:19:56;;;;;;;1.35;1.25;;;;;;;;;;4997020;28;20396;-69
2023/12/25 09:22:24;;;;;;;1.20;1.10;;;;;;;;;;5014481;28;20818;-69
2023/12/25 09:24:52;;;;;;;1.55;1.20;;;;;;;;;;5005678;28;20381;-69
2023/12/25 09:27:18;;;;;;;1.95;1.55;;;;;;;;;;5026359;28;20907;-69
2023/12/25 09:29:44;;;;;;;2.35;1.50;;;;;;;;;;5009115;28;20395;-70
2023/12/25 09:32:10;;;;;;;1.83;1.20;;;;;;;;;;5008891;28;20404;-70
2023/12/25 09:34:37;;;;;;;1.70;1.33;;;;;;;;;;5001607;28;20392;-69
2023/12/25 09:37:03;;;;;;;7.43;6.47;;;;;;;;;;5013462;28;20492;-70
2023/12/25 09:39:29;;;;;;;12.05;9.63;;;;;;;;;;5013102;28;20440;-70
2023/12/25 09:41:55;;;;;;;6.88;5.57;;;;;;;;;;5014174;28;20412;-72
2023/12/25 09:44:21;;;;;;;3.75;2.70;;;;;;;;;;4997793;28;20389;-70
2023/12/25 09:46:47;;;;;;;4.38;3.85;;;;;;;;;;4995498;28;20453;-69
2023/12/25 09:49:14;;;;;;;5.28;3.95;;;;;;;;;;5012869;28;20380;-69
2023/12/25 09:51:41;;;;;;;2.30;1.77;;;;;;;;;;4994926;28;20397;-70
2023/12/25 09:54:07;;;;;;;3.10;2.80;;;;;;;;;;5012964;28;20392;-70
2023/12/25 09:56:35;;;;;;;4.10;3.30;;;;;;;;;;5013149;28;20747;-70
2023/12/25 09:59:02;;;;;;;3.50;2.72;;;;;;;;;;4995007;28;20483;-70
2023/12/25 10:01:28;;;;;;;2.42;2.22;;;;;;;;;;4995147;28;20895;-70
2023/12/25 10:03:55;;;;;;;3.40;3.10;;;;;;;;;;5012978;28;20412;-69
2023/12/25 10:06:20;;;;;;;3.22;2.80;;;;;;;;;;4995208;28;20389;-69
2023/12/25 10:08:47;;;;;;;2.90;2.60;;;;;;;;;;5012730;28;20393;-69
2023/12/25 10:11:14;;;;;;;2.70;2.30;;;;;;;;;;5012823;28;20924;-68
2023/12/25 10:13:43;;;;;;;3.75;2.30;;;;;;;;;;5012799;28;20867;-68
2023/12/25 10:16:09;;;;;;;2.63;2.42;;;;;;;;;;4994947;28;20387;-68
2023/12/25 10:18:39;;;;;;;8.25;7.45;;;;;;;;;;5013239;28;20460;-68
2023/12/25 10:21:06;;;;;;;4.15;2.88;;;;;;;;;;4995142;28;20393;-69
2023/12/25 10:23:32;;;;;;;3.40;3.03;;;;;;;;;;4995032;28;20740;-69
2023/12/25 10:25:59;;;;;;;3.50;3.08;;;;;;;;;;5012614;28;20420;-69
2023/12/25 10:28:29;;;;;;;6.85;6.25;;;;;;;;;;5012856;28;20408;-70
2023/12/25 10:31:04;;;;;;;8.35;7.55;;;;;;;;;;5018512;28;20460;-69
2023/12/25 10:33:31;;;;;;;6.90;5.55;;;;;;;;;;5032603;28;20381;-70
2023/12/25 10:36:04;;;;;;;5.75;5.00;;;;;;;;;;5031145;28;20392;-69
2023/12/25 10:38:34;;;;;;;7.47;6.28;;;;;;;;;;5016890;28;20403;-69
2023/12/25 10:41:19;;;;;;;7.03;5.50;;;;;;;;;;5014965;28;20388;-69
2023/12/25 10:43:58;;;;;;;8.63;6.70;;;;;;;;;;5014618;28;20466;-69
2023/12/25 10:46:25;;;;;;;9.55;7.40;;;;;;;;;;5014152;28;20454;-69
2023/12/25 10:48:55;;;;;;;9.98;8.73;;;;;;;;;;5016868;28;20383;-70
2023/12/25 10:51:32;;;;;;;13.30;11.90;;;;;;;;;;5017068;28;20455;-70
2023/12/25 10:54:00;;;;;;;3.63;3.25;;;;;;;;;;5017336;28;20376;-70
2023/12/25 10:56:27;;;;;;;4.20;3.80;;;;;;;;;;4998878;28;20395;-69
2023/12/25 10:58:54;;;;;;;4.27;3.50;;;;;;;;;;5020288;28;20385;-70
2023/12/25 11:01:25;;;;;;;3.88;3.58;;;;;;;;;;4999805;28;20381;-70
2023/12/25 11:03:53;;;;;;;5.28;3.75;;;;;;;;;;5017663;28;20743;-70
2023/12/25 11:06:20;;;;;;;3.80;3.40;;;;;;;;;;5000108;28;20395;-70
2023/12/25 11:08:47;;;;;;;4.30;3.90;;;;;;;;;;5022781;28;20389;-70
2023/12/25 11:11:13;;;;;;;3.80;3.40;;;;;;;;;;5015013;28;20388;-70
2023/12/25 11:13:40;;;;;;;3.40;3.10;;;;;;;;;;5033351;28;20399;-69
2023/12/25 11:16:07;;;;;;;2.80;2.60;;;;;;;;;;5032624;28;20396;-69
2023/12/25 11:18:36;;;;;;;2.90;2.70;;;;;;;;;;5022163;28;20893;-70
2023/12/25 11:21:08;;;;;;;3.77;3.23;;;;;;;;;;5016400;28;20473;-70
2023/12/25 11:23:38;;;;;;;3.83;3.53;;;;;;;;;;5001756;28;20783;-70
2023/12/25 11:26:08;;;;;;;5.40;4.38;;;;;;;;;;5020470;28;20484;-71
2023/12/25 11:28:43;;;;;;;4.30;3.90;;;;;;;;;;5019077;28;20426;-69
2023/12/25 11:31:13;;;;;;;5.15;4.15;;;;;;;;;;5017439;28;20395;-68
2023/12/25 11:33:48;;;;;;;3.30;3.00;;;;;;;;;;4998590;28;20380;-69
2023/12/25 11:36:15;;;;;;;3.70;3.30;;;;;;;;;;4998036;28;20446;-69
2023/12/25 11:38:47;;;;;;;3.55;2.70;;;;;;;;;;4998002;28;20443;-69
2023/12/25 11:41:19;;;;;;;1.80;1.70;;;;;;;;;;5015625;28;20391;-69
2023/12/25 11:43:48;;;;;;;2.10;1.90;;;;;;;;;;5015562;28;20384;-69
2023/12/25 11:46:15;;;;;;;2.05;1.85;;;;;;;;;;4997850;28;20408;-70
2023/12/25 11:48:44;;;;;;;2.92;2.33;;;;;;;;;;5015521;28;20370;-70
2023/12/25 11:51:22;;;;;;;2.25;2.00;;;;;;;;;;5016522;28;20389;-69
2023/12/25 11:53:50;;;;;;;2.20;2.00;;;;;;;;;;4998014;28;20393;-70
2023/12/25 11:56:17;;;;;;;1.70;1.60;;;;;;;;;;4998095;28;20389;-70
2023/12/25 11:58:44;;;;;;;1.45;1.35;;;;;;;;;;4997633;28;20823;-71
2023/12/25 12:01:13;;;;;;;1.90;1.80;;;;;;;;;;5014451;28;20373;-70
2023/12/25 12:03:41;;;;;;;2.97;2.65;;;;;;;;;;5015433;28;20436;-71
2023/12/25 12:06:07;;;;;;;4.10;3.63;;;;;;;;;;5015474;28;20751;-70
2023/12/25 12:08:33;;;;;;;1.92;1.80;;;;;;;;;;4997441;28;20389;-70
2023/12/25 12:11:05;;;;;;;2.30;2.10;;;;;;;;;;5017071;28;20388;-70
2023/12/25 12:13:31;;;;;;;1.58;1.48;;;;;;;;;;5001196;28;20456;-70
2023/12/25 12:15:57;;;;;;;2.10;1.90;;;;;;;;;;5017637;28;20458;-70
2023/12/25 12:18:23;;;;;;;3.80;3.42;;;;;;;;;;5022759;28;20557;-70
2023/12/25 12:20:49;;;;;;;1.30;1.20;;;;;;;;;;5021001;28;20388;-70
2023/12/25 12:23:15;;;;;;;2.10;1.90;;;;;;;;;;5022196;28;20404;-70
2023/12/25 12:25:42;;;;;;;2.75;2.55;;;;;;;;;;5018542;28;20395;-70
2023/12/25 12:28:08;;;;;;;3.22;2.92;;;;;;;;;;5016052;28;20377;-69
2023/12/25 12:30:35;;;;;;;2.33;2.00;;;;;;;;;;5016061;28;20721;-70
2023/12/25 12:33:02;;;;;;;1.80;1.50;;;;;;;;;;5014774;28;20388;-70
2023/12/25 12:35:29;;;;;;;2.30;1.90;;;;;;;;;;5015890;28;20377;-70
2023/12/25 12:37:55;;;;;;;2.10;2.00;;;;;;;;;;4997545;28;20397;-70
2023/12/25 12:40:21;;;;;;;2.10;1.73;;;;;;;;;;5015296;28;20926;-70
2023/12/25 12:42:47;;;;;;;2.90;2.33;;;;;;;;;;4997230;28;20504;-69
2023/12/25 12:45:13;;;;;;;2.20;1.98;;;;;;;;;;5019009;28;20867;-70
2023/12/25 12:47:39;;;;;;;14.88;13.38;;;;;;;;;;4999647;28;20389;-69
2023/12/25 12:50:05;;;;;;;11.80;10.80;;;;;;;;;;5014663;28;20743;-70
2023/12/25 12:52:31;;;;;;;16.52;13.23;;;;;;;;;;5014358;28;20409;-71
2023/12/25 12:54:57;;;;;;;52.20;35.53;;;;;;;;;;4997310;28;20396;-69
2023/12/25 12:57:23;;;;;;;32.07;20.50;;;;;;;;;;5014674;28;20450;-70
2023/12/25 12:59:49;;;;;;;31.33;19.00;;;;;;;;;;5014528;28;20867;-69
2023/12/25 13:02:15;;;;;;;24.92;16.13;;;;;;;;;;5014192;28;20408;-69
2023/12/25 13:04:41;;;;;;;224.93;136.47;;;;;;;;;;5014181;28;20381;-68
2023/12/25 13:07:08;;;;;;;44.80;25.65;;;;;;;;;;4996588;28;20416;-69
2023/12/25 13:09:34;;;;;;;26.15;14.95;;;;;;;;;;5014825;28;20450;-71
2023/12/25 13:12:00;;;;;;;41.10;30.33;;;;;;;;;;5014230;28;20431;-69
2023/12/25 13:14:26;;;;;;;228.75;167.73;;;;;;;;;;5015362;28;20377;-69
2023/12/25 13:16:52;;;;;;;294.55;215.30;;;;;;;;;;5016057;28;20412;-70
2023/12/25 13:19:18;;;;;;;65.65;58.25;;;;;;;;;;5016228;28;20776;-70
2023/12/25 13:21:44;;;;;;;29.92;24.67;;;;;;;;;;5028573;28;20408;-70
2023/12/25 13:24:10;;;;;;;19.60;13.60;;;;;;;;;;5030733;28;20377;-70
2023/12/25 13:26:36;;;;;;;15.63;14.02;;;;;;;;;;5005072;28;20744;-71
2023/12/25 13:29:03;;;;;;;9.70;8.57;;;;;;;;;;5015845;28;20385;-70
2023/12/25 13:31:29;;;;;;;11.13;9.93;;;;;;;;;;4997076;28;20392;-70
2023/12/25 13:33:55;;;;;;;12.77;11.48;;;;;;;;;;4996929;28;20385;-70
2023/12/25 13:36:21;;;;;;;17.40;15.75;;;;;;;;;;5013750;28;20377;-69
2023/12/25 13:38:47;;;;;;;14.93;13.35;;;;;;;;;;5014410;28;20428;-68
2023/12/25 13:41:13;;;;;;;31.52;28.63;;;;;;;;;;4997450;28;20392;-69
2023/12/25 13:43:39;;;;;;;5.85;5.35;;;;;;;;;;5016459;28;20404;-69
2023/12/25 13:46:05;;;;;;;4.53;4.05;;;;;;;;;;5016396;28;20388;-69
2023/12/25 13:48:31;;;;;;;5.45;4.88;;;;;;;;;;5016451;28;20385;-70
2023/12/25 13:50:57;;;;;;;4.78;4.25;;;;;;;;;;5017319;28;20393;-69
2023/12/25 13:53:23;;;;;;;4.68;3.35;;;;;;;;;;5016228;28;20392;-70
2023/12/25 13:55:49;;;;;;;11.48;9.50;;;;;;;;;;5016093;28;20384;-70
2023/12/25 13:58:16;;;;;;;6.20;4.32;;;;;;;;;;5015164;28;20458;-70
2023/12/25 14:00:42;;;;;;;7.93;6.33;;;;;;;;;;5015609;28;20389;-70
2023/12/25 14:03:08;;;;;;;8.90;7.57;;;;;;;;;;5015243;28;20918;-70
2023/12/25 14:05:34;;;;;;;9.20;8.30;;;;;;;;;;4997865;28;20393;-70
2023/12/25 14:08:00;;;;;;;6.25;5.63;;;;;;;;;;4997243;28;20475;-69
2023/12/25 14:10:28;;;;;;;7.32;5.72;;;;;;;;;;4997151;28;20404;-71
2023/12/25 14:12:54;;;;;;;6.97;4.55;;;;;;;;;;4996874;28;20783;-69
2023/12/25 14:15:20;;;;;;;5.55;4.90;;;;;;;;;;5015228;28;20386;-71
2023/12/25 14:17:50;;;;;;;4.40;3.35;;;;;;;;;;5015661;28;20790;-71
2023/12/25 14:20:16;;;;;;;4.07;3.20;;;;;;;;;;5015361;28;20389;-70
2023/12/25 14:22:42;;;;;;;4.60;3.00;;;;;;;;;;5014993;28;20416;-70
2023/12/25 14:25:08;;;;;;;5.85;4.90;;;;;;;;;;5019410;28;20389;-69
2023/12/25 14:27:36;;;;;;;3.22;2.80;;;;;;;;;;5000531;28;20385;-70
2023/12/25 14:30:03;;;;;;;2.72;2.40;;;;;;;;;;5001299;28;20409;-69
2023/12/25 14:32:29;;;;;;;5.50;4.93;;;;;;;;;;5000868;28;20760;-69
2023/12/25 14:34:55;;;;;;;6.38;4.38;;;;;;;;;;5002165;28;20391;-72
2023/12/25 14:37:21;;;;;;;6.88;5.93;;;;;;;;;;5019755;28;20393;-69